Nord Imagination — 3FIA8 — position and weather

sailwx.info

Track history (hours):
 
Tides and Currents Weather Stations Pressure Air Temp Water Temp Dewpoint Dewpoint Depression Visibility Wind Speed Wind Dir Waves Ship Positions

Nord Imagination

Last reported at 2018-Jan-08 23:20 UTC. Time now 2018-Jan-19 19:33 UTC.
Position N 07°59' W 016°51'.
Warning: this ship's position is 10 days out of date.

Length 179 m; draft 10.6 m.

Type: Ship (hazmat cat D). MMSI: 354828000.

Date/timePositionNaut miles runAvg speedWind from/ knotsBaromVisibWave heightAir tempDewpointWater temp
2018-Jan-08 23:20N 07°59' W 016°51'814.1
2018-Jan-08 22:46N 08°04' W 016°57'1414.4
2018-Jan-08 21:49N 08°12' W 017°08'414.0
2018-Jan-08 21:30N 08°15' W 017°11'714.0
2018-Jan-08 21:00N 08°19' W 017°17'713.9
2018-Jan-08 20:30N 08°24' W 017°22'714.1
2018-Jan-08 19:59N 08°28' W 017°28'713.8
2018-Jan-08 19:27N 08°34' W 017°32'614.0
2018-Jan-08 19:00N 08°40' W 017°35'714.0
2018-Jan-08 18:30N 08°46' W 017°39'713.9
2018-Jan-08 18:00N 08°52' W 017°42'713.5
2018-Jan-08 17:30N 08°58' W 017°45'713.6
2018-Jan-08 17:00N 09°04' W 017°48'  
2018-Jan-05 06:40N 26°32' W 015°17'5514.6
2018-Jan-05 02:54N 27°11' W 014°34'614.6
2018-Jan-05 02:30N 27°15' W 014°29'714.6
2018-Jan-05 02:00N 27°20' W 014°23'714.4
2018-Jan-05 01:30N 27°26' W 014°18'714.8
2018-Jan-05 01:00N 27°31' W 014°12'714.6
2018-Jan-05 00:30N 27°36' W 014°06'714.4
2018-Jan-05 00:00N 27°41' W 014°00'714.6
2018-Jan-04 23:30N 27°46' W 013°55'714.6
2018-Jan-04 23:00N 27°52' W 013°49'714.4
2018-Jan-04 22:30N 27°57' W 013°43'714.7
2018-Jan-04 22:00N 28°02' W 013°37'815.0
2018-Jan-04 21:30N 28°07' W 013°31'815.3
2018-Jan-04 21:00N 28°13' W 013°25'715.1
2018-Jan-04 20:30N 28°18' W 013°19'714.7
2018-Jan-04 20:00N 28°23' W 013°13'714.4
2018-Jan-04 19:30N 28°28' W 013°07'714.5
2018-Jan-04 19:00N 28°34' W 013°02'714.9
2018-Jan-04 18:30N 28°39' W 012°56'815.2
2018-Jan-04 18:00N 28°45' W 012°50'715.2
2018-Jan-04 17:30N 28°50' W 012°44'814.9
2018-Jan-04 16:59N 28°55' W 012°38'814.4
2018-Jan-04 16:27N 29°01' W 012°32'714.4
2018-Jan-04 16:00N 29°07' W 012°28'714.3
2018-Jan-04 15:29N 29°14' W 012°25'714.3
2018-Jan-04 15:00N 29°20' W 012°21'714.0
2018-Jan-04 14:30N 29°26' W 012°17'713.9
2018-Jan-04 14:00N 29°32' W 012°13'713.9
2018-Jan-04 13:30N 29°38' W 012°09'14813.5
2018-Jan-04 02:36N 31°50' W 010°52'213.5
2018-Jan-04 02:29N 31°51' W 010°51'713.7
2018-Jan-04 02:00N 31°57' W 010°47'1213.8
2018-Jan-04 01:10N 32°07' W 010°41'214.1
2018-Jan-04 01:00N 32°09' W 010°40'34013.1
2018-Jan-02 23:05N 35°58' W 005°36'111.9
2018-Jan-02 22:59N 35°58' W 005°35'511.3
2018-Jan-02 22:30N 35°60' W 005°28'4 8.8
2018-Jan-02 22:00N 36°02' W 005°24'4 8.7
2018-Jan-02 21:30N 36°07' W 005°23'2 0.3
2018-Jan-02 16:01N 36°08' W 005°22'0 0.0
2018-Jan-02 15:37N 36°08' W 005°22'0 0.0
2018-Jan-02 10:11N 36°08' W 005°22'0 0.1
2018-Jan-02 09:58N 36°08' W 005°22'3 3.8
2018-Jan-02 09:13N 36°05' W 005°21'4 6.0
2018-Jan-02 08:30N 36°04' W 005°16'3 5.6
2018-Jan-02 08:00N 36°04' W 005°13'4 7.9
2018-Jan-02 07:30N 36°05' W 005°08'22111.3
2018-Jan-01 12:00N 37°23' W 000°50'612.9
2018-Jan-01 11:30N 37°27' W 000°44'612.7
2018-Jan-01 11:00N 37°31' W 000°38'612.4
2018-Jan-01 10:30N 37°36' W 000°32'612.4
2018-Jan-01 10:01N 37°41' W 000°28'612.2
2018-Jan-01 09:30N 37°46' W 000°24'1312.1
2018-Jan-01 08:27N 37°57' W 000°15'20212.7
2017-Dec-31 16:27N 40°50' E 002°02'612.0
2017-Dec-31 15:57N 40°55' E 002°06'612.1
2017-Dec-31 15:29N 40°60' E 002°10'612.0
2017-Dec-31 15:00N 41°05' E 002°10'611.7
2017-Dec-31 14:30N 41°11' E 002°10'511.0
2017-Dec-31 14:00N 41°17' E 002°11'  
Track history (hours):
 
Tides and Currents Weather Stations Pressure Air Temp Water Temp Dewpoint Dewpoint Depression Visibility Wind Speed Wind Dir Waves Ship Positions

Nord Imagination

Last reported at 2018-Jan-08 23:20 UTC. Time now 2018-Jan-19 19:33 UTC.
Position N 07°59' W 016°51'.
Warning: this ship's position is 10 days out of date.

Length 179 m; draft 10.6 m.

Type: Ship (hazmat cat D). MMSI: 354828000.

Date/timePositionNaut miles runAvg speedWind from/ knotsBaromVisibWave heightAir tempDewpointWater temp
2018-Jan-08 23:20N 07°59' W 016°51'814.1
2018-Jan-08 22:46N 08°04' W 016°57'1414.4
2018-Jan-08 21:49N 08°12' W 017°08'414.0
2018-Jan-08 21:30N 08°15' W 017°11'714.0
2018-Jan-08 21:00N 08°19' W 017°17'713.9
2018-Jan-08 20:30N 08°24' W 017°22'714.1
2018-Jan-08 19:59N 08°28' W 017°28'713.8
2018-Jan-08 19:27N 08°34' W 017°32'614.0
2018-Jan-08 19:00N 08°40' W 017°35'714.0
2018-Jan-08 18:30N 08°46' W 017°39'713.9
2018-Jan-08 18:00N 08°52' W 017°42'713.5
2018-Jan-08 17:30N 08°58' W 017°45'713.6
2018-Jan-08 17:00N 09°04' W 017°48'  
2018-Jan-05 06:40N 26°32' W 015°17'5514.6
2018-Jan-05 02:54N 27°11' W 014°34'614.6
2018-Jan-05 02:30N 27°15' W 014°29'714.6
2018-Jan-05 02:00N 27°20' W 014°23'714.4
2018-Jan-05 01:30N 27°26' W 014°18'714.8
2018-Jan-05 01:00N 27°31' W 014°12'714.6
2018-Jan-05 00:30N 27°36' W 014°06'714.4
2018-Jan-05 00:00N 27°41' W 014°00'714.6
2018-Jan-04 23:30N 27°46' W 013°55'714.6
2018-Jan-04 23:00N 27°52' W 013°49'714.4
2018-Jan-04 22:30N 27°57' W 013°43'714.7
2018-Jan-04 22:00N 28°02' W 013°37'815.0
2018-Jan-04 21:30N 28°07' W 013°31'815.3
2018-Jan-04 21:00N 28°13' W 013°25'715.1
2018-Jan-04 20:30N 28°18' W 013°19'714.7
2018-Jan-04 20:00N 28°23' W 013°13'714.4
2018-Jan-04 19:30N 28°28' W 013°07'714.5
2018-Jan-04 19:00N 28°34' W 013°02'714.9
2018-Jan-04 18:30N 28°39' W 012°56'815.2
2018-Jan-04 18:00N 28°45' W 012°50'715.2
2018-Jan-04 17:30N 28°50' W 012°44'814.9
2018-Jan-04 16:59N 28°55' W 012°38'814.4
2018-Jan-04 16:27N 29°01' W 012°32'714.4
2018-Jan-04 16:00N 29°07' W 012°28'714.3
2018-Jan-04 15:29N 29°14' W 012°25'714.3
2018-Jan-04 15:00N 29°20' W 012°21'714.0
2018-Jan-04 14:30N 29°26' W 012°17'713.9
2018-Jan-04 14:00N 29°32' W 012°13'713.9
2018-Jan-04 13:30N 29°38' W 012°09'14813.5
2018-Jan-04 02:36N 31°50' W 010°52'213.5
2018-Jan-04 02:29N 31°51' W 010°51'713.7
2018-Jan-04 02:00N 31°57' W 010°47'1213.8
2018-Jan-04 01:10N 32°07' W 010°41'214.1
2018-Jan-04 01:00N 32°09' W 010°40'34013.1
2018-Jan-02 23:05N 35°58' W 005°36'111.9
2018-Jan-02 22:59N 35°58' W 005°35'511.3
2018-Jan-02 22:30N 35°60' W 005°28'4 8.8
2018-Jan-02 22:00N 36°02' W 005°24'4 8.7
2018-Jan-02 21:30N 36°07' W 005°23'2 0.3
2018-Jan-02 16:01N 36°08' W 005°22'0 0.0
2018-Jan-02 15:37N 36°08' W 005°22'0 0.0
2018-Jan-02 10:11N 36°08' W 005°22'0 0.1
2018-Jan-02 09:58N 36°08' W 005°22'3 3.8
2018-Jan-02 09:13N 36°05' W 005°21'4 6.0
2018-Jan-02 08:30N 36°04' W 005°16'3 5.6
2018-Jan-02 08:00N 36°04' W 005°13'4 7.9
2018-Jan-02 07:30N 36°05' W 005°08'22111.3
2018-Jan-01 12:00N 37°23' W 000°50'612.9
2018-Jan-01 11:30N 37°27' W 000°44'612.7
2018-Jan-01 11:00N 37°31' W 000°38'612.4
2018-Jan-01 10:30N 37°36' W 000°32'612.4
2018-Jan-01 10:01N 37°41' W 000°28'612.2
2018-Jan-01 09:30N 37°46' W 000°24'1312.1
2018-Jan-01 08:27N 37°57' W 000°15'20212.7
2017-Dec-31 16:27N 40°50' E 002°02'612.0
2017-Dec-31 15:57N 40°55' E 002°06'612.1
2017-Dec-31 15:29N 40°60' E 002°10'612.0
2017-Dec-31 15:00N 41°05' E 002°10'611.7
2017-Dec-31 14:30N 41°11' E 002°10'511.0
2017-Dec-31 14:00N 41°17' E 002°11'  

Dump ship's entire track history